Time;durP1;ratioP1;P1;durP2;ratioP2;P2;SDS_P1;SDS_P2;PMS_P1;PMS_P2;Temp;Humidity;BMP_temperature;BMP_pressure;BME280_temperature;BME280_humidity;BME280_pressure;Samples;Min_cycle;Max_cycle;Signal;HPM_P1;HPM_P2
2023/01/22 00:02:05;;;;;;;20.35;12.15;;;;;;;;;;4955594;28;20114;-94
2023/01/22 00:04:43;;;;;;;19.08;11.50;;;;;;;;;;4954779;28;20027;-92
2023/01/22 00:07:10;;;;;;;19.02;11.50;;;;;;;;;;4956359;28;20030;-94
2023/01/22 00:09:36;;;;;;;20.13;12.00;;;;;;;;;;4956086;28;20031;-87
2023/01/22 00:12:02;;;;;;;20.80;11.60;;;;;;;;;;4958380;28;20034;-89
2023/01/22 00:14:41;;;;;;;18.27;11.35;;;;;;;;;;4958133;28;20105;-91
2023/01/22 00:17:07;;;;;;;16.40;11.00;;;;;;;;;;4977591;28;20065;-90
2023/01/22 00:19:33;;;;;;;17.83;10.95;;;;;;;;;;4977491;28;20089;-89
2023/01/22 00:22:06;;;;;;;16.48;10.45;;;;;;;;;;4977710;28;20558;-89
2023/01/22 00:24:35;;;;;;;;;;;;;;;;;;4977723;28;20027;-93
2023/01/22 00:27:01;;;;;;;16.95;10.60;;;;;;;;;;4977388;28;20400;-90
2023/01/22 00:29:27;;;;;;;19.00;10.57;;;;;;;;;;4977384;28;20037;-88
2023/01/22 00:31:53;;;;;;;19.10;11.60;;;;;;;;;;4977157;28;20038;-90
2023/01/22 00:34:19;;;;;;;18.52;12.00;;;;;;;;;;4977384;28;20037;-91
2023/01/22 00:36:48;;;;;;;18.30;11.43;;;;;;;;;;4977351;28;20468;-90
2023/01/22 00:39:15;;;;;;;17.80;11.43;;;;;;;;;;4977434;28;20057;-89
2023/01/22 00:41:43;;;;;;;19.30;11.20;;;;;;;;;;4977437;28;20038;-91
2023/01/22 00:44:12;;;;;;;18.30;11.77;;;;;;;;;;4977532;28;20030;-92
2023/01/22 00:46:42;;;;;;;17.95;11.95;;;;;;;;;;4981217;28;20026;-89
2023/01/22 00:49:08;;;;;;;18.63;11.18;;;;;;;;;;4983586;28;20047;-88
2023/01/22 00:51:35;;;;;;;18.42;11.38;;;;;;;;;;4977234;28;20030;-89
2023/01/22 00:54:09;;;;;;;18.52;11.57;;;;;;;;;;4977138;28;20026;-88
2023/01/22 00:56:35;;;;;;;20.63;12.50;;;;;;;;;;4976834;28;20487;-86
2023/01/22 00:59:08;;;;;;;18.40;11.73;;;;;;;;;;4977185;28;20094;-87
2023/01/22 01:01:34;;;;;;;18.42;11.70;;;;;;;;;;4976177;28;20403;-93
2023/01/22 01:04:00;;;;;;;17.65;11.32;;;;;;;;;;4976830;28;20030;-89
2023/01/22 01:06:27;;;;;;;20.83;12.82;;;;;;;;;;4977390;28;20497;-89
2023/01/22 01:08:53;;;;;;;21.08;13.02;;;;;;;;;;4976853;28;20022;-87
2023/01/22 01:11:21;;;;;;;19.50;12.20;;;;;;;;;;4976874;28;20038;-89
2023/01/22 01:14:16;;;;;;;18.17;10.98;;;;;;;;;;4982761;28;20022;-87
2023/01/22 01:16:42;;;;;;;16.08;10.52;;;;;;;;;;4967995;28;20058;-86
2023/01/22 01:19:16;;;;;;;17.17;10.77;;;;;;;;;;4958016;28;20026;-92
2023/01/22 01:22:11;;;;;;;15.95;10.15;;;;;;;;;;4957393;28;20034;-92
2023/01/22 01:24:39;;;;;;;15.32;9.68;;;;;;;;;;4935929;28;20085;-88
2023/01/22 01:27:09;;;;;;;15.30;10.20;;;;;;;;;;4957914;28;20077;-93
2023/01/22 01:29:35;;;;;;;16.80;10.25;;;;;;;;;;4956660;28;20037;-93
2023/01/22 01:32:04;;;;;;;15.63;10.75;;;;;;;;;;4957203;28;20093;-88
2023/01/22 01:34:42;;;;;;;19.23;11.02;;;;;;;;;;4957038;28;20041;-93
2023/01/22 01:37:18;;;;;;;17.23;10.38;;;;;;;;;;4957822;28;20117;-94
2023/01/22 01:39:44;;;;;;;17.30;10.88;;;;;;;;;;4957236;28;20387;-90
2023/01/22 01:42:14;;;;;;;18.25;11.05;;;;;;;;;;4957862;28;20129;-88
2023/01/22 01:44:43;;;;;;;17.55;10.38;;;;;;;;;;4958261;28;20026;-94
2023/01/22 01:47:23;;;;;;;17.98;12.20;;;;;;;;;;4970134;28;20022;-89
2023/01/22 01:52:45;;;;;;;18.75;11.20;;;;;;;;;;4976913;28;20509;-91
2023/01/22 01:55:11;;;;;;;19.95;11.90;;;;;;;;;;4956239;28;20031;-90
2023/01/22 01:57:38;;;;;;;21.05;11.85;;;;;;;;;;4956972;28;20117;-88
2023/01/22 02:00:11;;;;;;;19.50;11.90;;;;;;;;;;4956348;28;20030;-91
2023/01/22 02:02:52;;;;;;;19.60;11.88;;;;;;;;;;4973603;28;20062;-88
2023/01/22 02:05:22;;;;;;;20.70;12.43;;;;;;;;;;4956760;28;20050;-90
2023/01/22 02:07:54;;;;;;;20.75;12.52;;;;;;;;;;4956267;28;20031;-92
2023/01/22 02:10:20;;;;;;;18.92;12.07;;;;;;;;;;4956712;28;20121;-88
2023/01/22 02:12:46;;;;;;;19.27;12.57;;;;;;;;;;4955820;28;20114;-88
2023/01/22 02:15:17;;;;;;;21.50;13.98;;;;;;;;;;4957690;28;20571;-91
2023/01/22 02:17:43;;;;;;;22.52;13.50;;;;;;;;;;4955993;28;20027;-88
2023/01/22 02:20:09;;;;;;;21.45;13.23;;;;;;;;;;4956277;28;20027;-87
2023/01/22 02:22:36;;;;;;;21.52;13.80;;;;;;;;;;4955880;28;20069;-87
2023/01/22 02:25:11;;;;;;;22.98;14.07;;;;;;;;;;4956032;28;20134;-88
2023/01/22 02:27:44;;;;;;;25.13;15.00;;;;;;;;;;4955964;28;20117;-92
2023/01/22 02:30:10;;;;;;;22.52;14.02;;;;;;;;;;4954675;28;20142;-92
2023/01/22 02:32:39;;;;;;;24.52;15.05;;;;;;;;;;4955947;28;20031;-92
2023/01/22 02:35:05;;;;;;;23.58;15.10;;;;;;;;;;4955851;28;20073;-87
2023/01/22 02:37:31;;;;;;;22.85;14.27;;;;;;;;;;4955649;28;20160;-90
2023/01/22 02:39:58;;;;;;;26.33;14.70;;;;;;;;;;4955959;28;20152;-88
2023/01/22 02:42:27;;;;;;;22.23;13.05;;;;;;;;;;4955188;28;20105;-89
2023/01/22 02:44:56;;;;;;;25.67;14.60;;;;;;;;;;4964340;28;20041;-89
2023/01/22 02:47:22;;;;;;;25.40;15.10;;;;;;;;;;4958883;28;20034;-91
2023/01/22 02:50:01;;;;;;;22.35;14.45;;;;;;;;;;4956158;28;20022;-89
2023/01/22 02:52:34;;;;;;;22.85;14.02;;;;;;;;;;4955753;28;20125;-89
2023/01/22 02:55:03;;;;;;;25.00;14.75;;;;;;;;;;4953549;28;20117;-92
2023/01/22 02:57:45;;;;;;;24.00;14.98;;;;;;;;;;4955500;28;20034;-93
2023/01/22 03:00:14;;;;;;;27.40;15.38;;;;;;;;;;4968568;28;20050;-90
2023/01/22 03:05:32;;;;;;;24.58;14.90;;;;;;;;;;4974875;28;20035;-93
2023/01/22 03:08:10;;;;;;;23.35;14.18;;;;;;;;;;4957792;28;20026;-88
2023/01/22 03:10:36;;;;;;;22.27;13.20;;;;;;;;;;4955745;28;20551;-88
2023/01/22 03:25:06;;;;;;;25.85;15.23;;;;;;;;;;4983179;28;20038;-87
2023/01/22 03:27:32;;;;;;;26.65;15.95;;;;;;;;;;4975289;28;20033;-89
2023/01/22 03:30:05;;;;;;;26.00;15.52;;;;;;;;;;4975502;28;20395;-93
2023/01/22 03:32:43;;;;;;;26.50;15.80;;;;;;;;;;4975798;28;20038;-90
2023/01/22 03:35:09;;;;;;;27.65;15.50;;;;;;;;;;4976414;28;20394;-87
2023/01/22 03:37:35;;;;;;;28.85;16.92;;;;;;;;;;4976346;28;20026;-90
2023/01/22 03:40:04;;;;;;;29.77;16.55;;;;;;;;;;4981261;28;20364;-94
2023/01/22 03:42:30;;;;;;;29.17;16.67;;;;;;;;;;4996854;28;20026;-90
2023/01/22 03:45:02;;;;;;;31.85;17.52;;;;;;;;;;4986505;28;20085;-89
2023/01/22 03:47:28;;;;;;;29.60;17.35;;;;;;;;;;4978560;28;20089;-88
2023/01/22 03:49:55;;;;;;;29.30;16.63;;;;;;;;;;4978136;28;20049;-91
2023/01/22 03:52:24;;;;;;;31.77;18.55;;;;;;;;;;4978207;28;20085;-88
2023/01/22 03:54:59;;;;;;;32.95;18.63;;;;;;;;;;4979276;28;20034;-93
2023/01/22 03:57:35;;;;;;;32.40;18.30;;;;;;;;;;4978504;28;20109;-88
2023/01/22 04:00:11;;;;;;;;;;;;;;;;;;;;;
2023/01/22 04:02:45;;;;;;;35.67;20.05;;;;;;;;;;5004597;28;20130;-91
2023/01/22 04:05:11;;;;;;;;;;;;;;;;;;4981091;28;20037;-90
2023/01/22 04:07:37;;;;;;;33.55;18.25;;;;;;;;;;4977638;28;20005;-91
2023/01/22 04:10:03;;;;;;;38.67;20.00;;;;;;;;;;4977447;28;20034;-92
2023/01/22 04:12:34;;;;;;;38.20;20.45;;;;;;;;;;4977338;28;20058;-92
2023/01/22 04:15:01;;;;;;;38.92;20.83;;;;;;;;;;4977647;28;20138;-88
2023/01/22 04:17:30;;;;;;;39.03;20.77;;;;;;;;;;4977731;28;20038;-94
2023/01/22 04:20:09;;;;;;;;;;;;;;;;;;;;;
2023/01/22 04:22:39;;;;;;;39.83;21.38;;;;;;;;;;4994796;28;20026;-88
2023/01/22 04:25:11;;;;;;;39.00;21.50;;;;;;;;;;4977218;28;20041;-90
2023/01/22 04:27:43;;;;;;;41.55;22.25;;;;;;;;;;4977558;28;20030;-93
2023/01/22 04:30:12;;;;;;;45.70;24.48;;;;;;;;;;4977087;28;20033;-91
2023/01/22 04:32:38;;;;;;;42.85;22.95;;;;;;;;;;4976997;28;20472;-93
2023/01/22 04:35:07;;;;;;;45.15;23.50;;;;;;;;;;4977312;28;20475;-88
2023/01/22 04:37:37;;;;;;;49.03;24.88;;;;;;;;;;4977292;28;20372;-91
2023/01/22 04:40:06;;;;;;;48.75;25.20;;;;;;;;;;4977646;28;20038;-94
2023/01/22 04:43:02;;;;;;;47.03;25.17;;;;;;;;;;4989289;28;20149;-87
2023/01/22 04:45:28;;;;;;;43.90;22.35;;;;;;;;;;4980856;28;20050;-91
2023/01/22 04:48:00;;;;;;;50.33;23.67;;;;;;;;;;4977223;28;20089;-88
2023/01/22 04:50:27;;;;;;;48.30;24.90;;;;;;;;;;4976882;28;20030;-88
2023/01/22 04:52:54;;;;;;;46.72;24.27;;;;;;;;;;4977591;28;20029;-89
2023/01/22 04:55:27;;;;;;;43.90;22.42;;;;;;;;;;4977554;28;20030;-86
2023/01/22 04:58:00;;;;;;;43.78;21.98;;;;;;;;;;4977309;28;20451;-92
2023/01/22 05:00:29;;;;;;;49.03;22.45;;;;;;;;;;4976950;28;20075;-90
2023/01/22 05:03:02;;;;;;;46.03;22.67;;;;;;;;;;4976990;28;20061;-89
2023/01/22 05:05:35;;;;;;;44.05;22.17;;;;;;;;;;4976830;28;20072;-92
2023/01/22 05:08:01;;;;;;;50.55;25.70;;;;;;;;;;4976500;28;20069;-92
2023/01/22 05:10:33;;;;;;;44.53;22.25;;;;;;;;;;4976895;28;20035;-91
2023/01/22 05:13:04;;;;;;;43.97;22.45;;;;;;;;;;4976043;28;20022;-88
2023/01/22 05:15:31;;;;;;;42.13;22.38;;;;;;;;;;4976522;28;20142;-90
2023/01/22 05:17:59;;;;;;;41.60;20.50;;;;;;;;;;4976583;28;20030;-91
2023/01/22 05:20:26;;;;;;;39.42;20.83;;;;;;;;;;4977001;28;20029;-88
2023/01/22 05:22:59;;;;;;;41.13;21.98;;;;;;;;;;4977432;28;20065;-92
2023/01/22 05:25:26;;;;;;;40.95;21.48;;;;;;;;;;4977002;28;20372;-91
2023/01/22 05:27:52;;;;;;;40.92;21.73;;;;;;;;;;4978173;28;20032;-93
2023/01/22 05:30:18;;;;;;;42.67;22.13;;;;;;;;;;4977977;28;20030;-90
2023/01/22 05:32:44;;;;;;;46.10;23.00;;;;;;;;;;4991720;28;20014;-87
2023/01/22 05:35:14;;;;;;;40.45;21.00;;;;;;;;;;4972815;28;20104;-88
2023/01/22 05:37:40;;;;;;;51.55;24.00;;;;;;;;;;4977677;28;20483;-89
2023/01/22 05:40:06;;;;;;;53.15;24.55;;;;;;;;;;4976203;28;20045;-89
2023/01/22 05:42:33;;;;;;;51.22;24.77;;;;;;;;;;4976492;28;20030;-89
2023/01/22 05:44:59;;;;;;;45.00;22.90;;;;;;;;;;4977494;28;20031;-88
2023/01/22 05:47:25;;;;;;;42.92;22.77;;;;;;;;;;4983418;28;20023;-90
2023/01/22 05:49:51;;;;;;;49.17;23.77;;;;;;;;;;4976309;28;20058;-89
2023/01/22 05:52:17;;;;;;;41.58;20.73;;;;;;;;;;4975814;28;20030;-88
2023/01/22 05:54:43;;;;;;;44.33;22.58;;;;;;;;;;4975962;28;20117;-89
2023/01/22 05:57:09;;;;;;;43.85;21.33;;;;;;;;;;4976322;28;20369;-88
2023/01/22 05:59:35;;;;;;;38.38;19.50;;;;;;;;;;4976250;28;20029;-90
2023/01/22 06:02:04;;;;;;;39.20;19.63;;;;;;;;;;4976205;28;20026;-95
2023/01/22 06:04:31;;;;;;;39.20;20.35;;;;;;;;;;4975580;28;20041;-90
2023/01/22 06:06:57;;;;;;;33.33;18.00;;;;;;;;;;4975549;28;20030;-93
2023/01/22 06:09:26;;;;;;;37.55;20.17;;;;;;;;;;4975794;28;20071;-93
2023/01/22 06:11:52;;;;;;;40.47;20.70;;;;;;;;;;4975541;28;20125;-90
2023/01/22 06:14:18;;;;;;;42.05;20.35;;;;;;;;;;4975614;28;20038;-89
2023/01/22 06:16:47;;;;;;;45.60;22.27;;;;;;;;;;4963069;28;20459;-90
2023/01/22 06:19:13;;;;;;;37.65;19.05;;;;;;;;;;4956243;28;20034;-89
2023/01/22 06:21:42;;;;;;;42.33;20.77;;;;;;;;;;4956207;28;20058;-91
2023/01/22 06:24:08;;;;;;;35.35;19.13;;;;;;;;;;4956255;28;20054;-90
2023/01/22 06:26:34;;;;;;;33.08;17.73;;;;;;;;;;4956112;28;20033;-90
2023/01/22 06:29:00;;;;;;;36.00;19.33;;;;;;;;;;4956330;28;20034;-89
2023/01/22 06:31:26;;;;;;;35.47;18.15;;;;;;;;;;4955644;28;20034;-87
2023/01/22 06:33:53;;;;;;;30.02;15.68;;;;;;;;;;4955724;28;20038;-90
2023/01/22 06:36:19;;;;;;;40.83;19.98;;;;;;;;;;4956287;28;20434;-91
2023/01/22 06:38:45;;;;;;;35.40;18.65;;;;;;;;;;4960776;28;20027;-89
2023/01/22 06:41:11;;;;;;;39.45;20.63;;;;;;;;;;4964107;28;20030;-90
2023/01/22 06:43:38;;;;;;;37.20;19.15;;;;;;;;;;4959711;28;20038;-89
2023/01/22 06:46:04;;;;;;;32.10;17.67;;;;;;;;;;4965222;28;20035;-90
2023/01/22 06:48:30;;;;;;;32.60;18.13;;;;;;;;;;4956320;28;20121;-90
2023/01/22 06:50:57;;;;;;;34.55;17.85;;;;;;;;;;4956317;28;20082;-90
2023/01/22 06:53:23;;;;;;;32.45;17.77;;;;;;;;;;4956022;28;20034;-89
2023/01/22 06:55:49;;;;;;;32.10;17.58;;;;;;;;;;4955929;28;20062;-88
2023/01/22 06:58:15;;;;;;;34.28;18.45;;;;;;;;;;4958039;28;20057;-89
2023/01/22 07:00:42;;;;;;;32.17;18.27;;;;;;;;;;4968937;28;20102;-88
2023/01/22 07:03:08;;;;;;;29.85;16.30;;;;;;;;;;4961731;28;20027;-88
2023/01/22 07:05:34;;;;;;;28.60;16.55;;;;;;;;;;4956334;28;20027;-88
2023/01/22 07:08:00;;;;;;;27.05;15.50;;;;;;;;;;4955404;28;20073;-88
2023/01/22 07:10:27;;;;;;;29.20;16.25;;;;;;;;;;4955530;28;20046;-88
2023/01/22 07:13:00;;;;;;;32.05;17.58;;;;;;;;;;4956257;28;20023;-88
2023/01/22 07:15:26;;;;;;;29.77;15.73;;;;;;;;;;4958420;28;20043;-88
2023/01/22 07:17:53;;;;;;;31.80;17.25;;;;;;;;;;4977892;28;20034;-87
2023/01/22 07:20:20;;;;;;;33.83;18.10;;;;;;;;;;4979606;28;20037;-88
2023/01/22 07:22:46;;;;;;;29.90;15.18;;;;;;;;;;4979528;28;20026;-90
2023/01/22 07:25:13;;;;;;;28.80;16.10;;;;;;;;;;4989601;28;20037;-89
2023/01/22 07:27:39;;;;;;;28.80;16.25;;;;;;;;;;4959142;29;20035;-88
2023/01/22 07:30:32;;;;;;;28.27;15.82;;;;;;;;;;4940872;29;20039;-90
2023/01/22 07:33:00;;;;;;;30.02;15.48;;;;;;;;;;4940999;29;20162;-89
2023/01/22 07:35:29;;;;;;;27.42;15.63;;;;;;;;;;4941140;29;20444;-91
2023/01/22 07:38:02;;;;;;;34.55;17.63;;;;;;;;;;4946603;29;20122;-90
2023/01/22 07:40:34;;;;;;;33.55;17.73;;;;;;;;;;4942537;29;20023;-93
2023/01/22 07:43:13;;;;;;;33.10;17.45;;;;;;;;;;4942344;29;20046;-90
2023/01/22 07:45:39;;;;;;;34.45;19.70;;;;;;;;;;4941157;29;20493;-89
2023/01/22 07:48:09;;;;;;;31.10;17.80;;;;;;;;;;4941330;29;20032;-89
2023/01/22 07:50:39;;;;;;;30.25;17.38;;;;;;;;;;4941067;29;20485;-90
2023/01/22 07:53:06;;;;;;;29.05;15.65;;;;;;;;;;4948148;29;20615;-94
2023/01/22 07:55:35;;;;;;;29.05;16.05;;;;;;;;;;4941124;29;20027;-93
2023/01/22 07:58:05;;;;;;;24.13;14.43;;;;;;;;;;4950607;28;20046;-92
2023/01/22 08:00:40;;;;;;;25.17;14.20;;;;;;;;;;4979957;28;20038;-90
2023/01/22 08:03:13;;;;;;;32.25;19.75;;;;;;;;;;4985270;28;20026;-94
2023/01/22 08:05:42;;;;;;;55.10;36.67;;;;;;;;;;4982419;28;20073;-89
2023/01/22 08:08:19;;;;;;;24.17;14.50;;;;;;;;;;4980042;28;20114;-90
2023/01/22 08:10:45;;;;;;;26.13;16.70;;;;;;;;;;4979931;28;20038;-92
2023/01/22 08:13:17;;;;;;;24.88;14.77;;;;;;;;;;4979741;28;20042;-92
2023/01/22 08:15:44;;;;;;;25.42;15.90;;;;;;;;;;4976390;28;20047;-91
2023/01/22 08:18:11;;;;;;;23.65;13.05;;;;;;;;;;4963334;28;20031;-89
2023/01/22 08:20:47;;;;;;;25.77;16.75;;;;;;;;;;4961210;28;20026;-91
2023/01/22 08:23:13;;;;;;;20.88;12.05;;;;;;;;;;4953700;29;20035;-90
2023/01/22 08:25:51;;;;;;;20.75;12.48;;;;;;;;;;4962242;28;20122;-92
2023/01/22 08:28:24;;;;;;;18.05;11.70;;;;;;;;;;4961967;28;20122;-91
2023/01/22 08:30:50;;;;;;;18.83;11.73;;;;;;;;;;4961962;28;20035;-92
2023/01/22 08:33:16;;;;;;;21.95;14.10;;;;;;;;;;4961073;28;20026;-93
2023/01/22 08:35:46;;;;;;;21.27;12.93;;;;;;;;;;4967069;28;20467;-93
2023/01/22 08:38:12;;;;;;;19.88;11.75;;;;;;;;;;4973793;28;20054;-92
2023/01/22 08:40:39;;;;;;;18.85;11.40;;;;;;;;;;4960777;28;20041;-92
2023/01/22 08:43:15;;;;;;;;;;;;;;;;;;;;;
2023/01/22 08:45:53;;;;;;;18.55;10.93;;;;;;;;;;4977761;28;20027;-92
2023/01/22 08:48:31;;;;;;;20.77;11.73;;;;;;;;;;4961616;28;20035;-92
2023/01/22 08:51:03;;;;;;;19.02;11.32;;;;;;;;;;4959955;28;20046;-91
2023/01/22 08:53:32;;;;;;;17.05;10.70;;;;;;;;;;4960345;28;20085;-93
2023/01/22 08:56:02;;;;;;;17.55;10.27;;;;;;;;;;4960284;28;20058;-92
2023/01/22 08:58:31;;;;;;;18.77;11.27;;;;;;;;;;4962655;28;20027;-93
2023/01/22 09:13:11;;;;;;;17.30;11.30;;;;;;;;;;4917685;29;20094;-95
2023/01/22 09:15:56;;;;;;;18.08;11.32;;;;;;;;;;4963669;28;20027;-93
2023/01/22 09:18:28;;;;;;;19.58;12.10;;;;;;;;;;5200519;23;20515;-91
2023/01/22 09:20:58;;;;;;;24.27;13.90;;;;;;;;;;4964866;28;20027;-91
2023/01/22 09:26:24;;;;;;;21.50;13.40;;;;;;;;;;4962996;28;20086;-91
2023/01/22 09:32:09;;;;;;;22.02;13.27;;;;;;;;;;4962662;29;20111;-92
2023/01/22 09:37:44;;;;;;;20.40;12.70;;;;;;;;;;4958029;29;20126;-94
2023/01/22 09:40:29;;;;;;;21.60;12.15;;;;;;;;;;4941057;29;20023;-92
2023/01/22 09:43:16;;;;;;;21.02;13.48;;;;;;;;;;4944398;29;20049;-92
2023/01/22 09:45:54;;;;;;;21.58;13.32;;;;;;;;;;4943793;29;20042;-92
2023/01/22 09:48:31;;;;;;;19.30;12.52;;;;;;;;;;4942419;29;20023;-94
2023/01/22 09:51:24;;;;;;;19.38;11.13;;;;;;;;;;4947407;29;20043;-91
2023/01/22 09:54:32;;;;;;;15.40;9.55;;;;;;;;;;4900722;29;20035;-94
2023/01/22 09:57:15;;;;;;;16.63;9.70;;;;;;;;;;4864037;29;20074;-92
2023/01/22 09:59:59;;;;;;;14.38;8.73;;;;;;;;;;4876220;29;20045;-91
2023/01/22 10:02:42;;;;;;;16.30;9.85;;;;;;;;;;4883164;29;20060;-92
2023/01/22 10:05:26;;;;;;;18.88;12.35;;;;;;;;;;4883489;29;20043;-90
2023/01/22 10:07:52;;;;;;;;;;;;;;;;;;4884708;29;20127;-91
2023/01/22 10:20:19;;;;;;;20.47;11.77;;;;;;;;;;4877305;29;20068;-95
2023/01/22 10:29:03;;;;;;;15.32;10.77;;;;;;;;;;4879306;29;20130;-91
2023/01/22 10:31:46;;;;;;;18.23;10.93;;;;;;;;;;4931058;28;20504;-90
2023/01/22 10:34:37;;;;;;;16.35;10.52;;;;;;;;;;4958628;28;20030;-91
2023/01/22 10:37:16;;;;;;;16.20;10.05;;;;;;;;;;4964033;28;20054;-89
2023/01/22 10:39:58;;;;;;;17.75;11.20;;;;;;;;;;4959409;28;20458;-89
2023/01/22 10:42:37;;;;;;;19.27;12.05;;;;;;;;;;4958570;28;20383;-90
2023/01/22 10:45:15;;;;;;;16.50;10.70;;;;;;;;;;4958606;28;20050;-91
2023/01/22 10:47:42;;;;;;;17.65;11.20;;;;;;;;;;4957889;28;20487;-92
2023/01/22 10:50:18;;;;;;;17.38;11.27;;;;;;;;;;4957755;28;20030;-90
2023/01/22 10:52:53;;;;;;;18.48;11.55;;;;;;;;;;4956875;28;20034;-91
2023/01/22 10:55:42;;;;;;;15.57;9.88;;;;;;;;;;4962044;28;20023;-92
2023/01/22 10:58:16;;;;;;;13.57;8.98;;;;;;;;;;4958036;28;20042;-91
2023/01/22 11:00:48;;;;;;;20.95;13.52;;;;;;;;;;4947445;28;20216;-91
2023/01/22 11:03:53;;;;;;;21.38;13.88;;;;;;;;;;4959019;28;20106;-93
2023/01/22 11:06:50;;;;;;;19.38;12.20;;;;;;;;;;4958328;28;20030;-91
2023/01/22 11:09:20;;;;;;;17.85;11.63;;;;;;;;;;4936205;29;20576;-94
2023/01/22 11:12:01;;;;;;;16.88;11.00;;;;;;;;;;4959318;28;20046;-93
2023/01/22 11:14:41;;;;;;;16.17;11.45;;;;;;;;;;4958267;28;20034;-91
2023/01/22 11:17:27;;;;;;;18.27;12.02;;;;;;;;;;4957660;28;20038;-93
2023/01/22 11:20:28;;;;;;;18.05;11.80;;;;;;;;;;4957053;28;20062;-93
2023/01/22 11:29:19;;;;;;;16.77;10.15;;;;;;;;;;4878091;29;20550;-89
2023/01/22 11:31:50;;;;;;;15.55;9.18;;;;;;;;;;4863128;29;20037;-91
2023/01/22 11:34:30;;;;;;;16.52;10.85;;;;;;;;;;4862542;29;20044;-89
2023/01/22 11:37:15;;;;;;;17.77;11.48;;;;;;;;;;4873599;29;20033;-93
2023/01/22 11:39:55;;;;;;;18.58;11.77;;;;;;;;;;4868825;29;20037;-94
2023/01/22 11:42:43;;;;;;;20.08;11.48;;;;;;;;;;4864005;29;20033;-88
2023/01/22 11:45:39;;;;;;;24.13;14.90;;;;;;;;;;4862685;29;20044;-91
2023/01/22 11:48:24;;;;;;;25.02;15.75;;;;;;;;;;4862474;29;20064;-91
2023/01/22 11:51:14;;;;;;;21.00;13.00;;;;;;;;;;4878007;29;20136;-91
2023/01/22 11:54:05;;;;;;;20.52;12.63;;;;;;;;;;4910971;29;20035;-91
2023/01/22 11:56:37;;;;;;;22.27;13.00;;;;;;;;;;4939062;29;20126;-90
2023/01/22 11:59:38;;;;;;;21.25;13.85;;;;;;;;;;4940116;29;20140;-93
2023/01/22 12:08:37;;;;;;;20.88;13.57;;;;;;;;;;4885913;29;20082;-88
2023/01/22 12:14:36;;;;;;;17.92;12.07;;;;;;;;;;4904851;29;20051;-90
2023/01/22 12:17:23;;;;;;;20.50;12.77;;;;;;;;;;4882363;29;20043;-94
2023/01/22 12:19:49;;;;;;;20.00;12.75;;;;;;;;;;4917611;29;20051;-93
2023/01/22 12:22:47;;;;;;;21.02;14.00;;;;;;;;;;4941569;29;20066;-92
2023/01/22 12:25:34;;;;;;;21.67;13.88;;;;;;;;;;4948049;29;20023;-92
2023/01/22 12:28:45;;;;;;;26.52;16.38;;;;;;;;;;4942275;29;20067;-90
2023/01/22 12:34:27;;;;;;;21.67;14.03;;;;;;;;;;4959862;29;20399;-91
2023/01/22 12:37:00;;;;;;;18.45;12.13;;;;;;;;;;4941516;29;20027;-89
2023/01/22 12:39:30;;;;;;;21.10;14.40;;;;;;;;;;4941495;29;20036;-88
2023/01/22 12:42:18;;;;;;;20.13;13.13;;;;;;;;;;4941372;29;20039;-93
2023/01/22 12:45:03;;;;;;;20.08;13.60;;;;;;;;;;4940842;29;20039;-90
2023/01/22 12:47:32;;;;;;;16.67;11.15;;;;;;;;;;4941603;29;20034;-92
2023/01/22 12:50:31;;;;;;;18.25;10.93;;;;;;;;;;4941825;29;20023;-93
2023/01/22 12:53:11;;;;;;;19.77;12.80;;;;;;;;;;4942952;29;20392;-94
2023/01/22 12:55:40;;;;;;;22.20;13.90;;;;;;;;;;4941397;29;20059;-88
2023/01/22 12:58:23;;;;;;;19.58;11.90;;;;;;;;;;4941170;29;20031;-89
2023/01/22 13:01:22;;;;;;;20.45;13.07;;;;;;;;;;4941170;29;20125;-91
2023/01/22 13:04:16;;;;;;;23.98;15.40;;;;;;;;;;4919956;29;20050;-91
2023/01/22 13:07:19;;;;;;;20.40;12.63;;;;;;;;;;4940993;29;20031;-89
2023/01/22 13:10:16;;;;;;;20.75;12.75;;;;;;;;;;4941772;29;20039;-89
2023/01/22 13:12:48;;;;;;;19.83;13.07;;;;;;;;;;5072833;23;20073;-89
2023/01/22 13:15:50;;;;;;;16.50;11.23;;;;;;;;;;4976321;28;20038;-88
2023/01/22 13:18:44;;;;;;;18.70;12.45;;;;;;;;;;4980436;28;20053;-88
2023/01/22 13:21:16;;;;;;;23.60;15.43;;;;;;;;;;4964350;28;20042;-89
2023/01/22 13:23:51;;;;;;;22.63;16.02;;;;;;;;;;4959887;28;20034;-89
2023/01/22 13:26:20;;;;;;;17.15;11.43;;;;;;;;;;4960522;28;20029;-92
2023/01/22 13:28:53;;;;;;;15.75;10.75;;;;;;;;;;4959990;28;20038;-89
2023/01/22 13:31:33;;;;;;;;;;;;;;;;;;;;;
2023/01/22 13:34:09;;;;;;;17.05;10.77;;;;;;;;;;4977047;28;20033;-92
2023/01/22 13:36:43;;;;;;;18.65;10.82;;;;;;;;;;4966063;28;20061;-90
2023/01/22 13:39:16;;;;;;;16.50;9.63;;;;;;;;;;4971989;28;20485;-90
2023/01/22 13:41:42;;;;;;;16.53;10.80;;;;;;;;;;4965093;28;20113;-94
2023/01/22 13:44:24;;;;;;;21.65;14.38;;;;;;;;;;4960764;28;20281;-89
2023/01/22 13:47:00;;;;;;;17.45;11.57;;;;;;;;;;4962024;28;20085;-91
2023/01/22 13:49:31;;;;;;;19.00;11.73;;;;;;;;;;4969836;28;20057;-92
2023/01/22 13:52:07;;;;;;;16.55;11.00;;;;;;;;;;4960391;28;20038;-90
2023/01/22 13:54:41;;;;;;;19.10;11.50;;;;;;;;;;4960752;28;20054;-88
2023/01/22 13:57:18;;;;;;;15.18;10.02;;;;;;;;;;4960908;28;20212;-92
2023/01/22 13:59:54;;;;;;;18.25;11.45;;;;;;;;;;4963385;28;20105;-89
2023/01/22 14:02:28;;;;;;;21.13;12.65;;;;;;;;;;4979657;28;20113;-88
2023/01/22 14:04:55;;;;;;;21.58;12.45;;;;;;;;;;4985031;28;20034;-88
2023/01/22 14:07:38;;;;;;;19.73;12.45;;;;;;;;;;4993366;28;20041;-88
2023/01/22 14:10:15;;;;;;;22.20;13.65;;;;;;;;;;4979372;28;20033;-87
2023/01/22 14:12:41;;;;;;;23.30;14.20;;;;;;;;;;4978381;28;20043;-89
2023/01/22 14:15:15;;;;;;;21.98;13.32;;;;;;;;;;4977886;28;20619;-87
2023/01/22 14:17:41;;;;;;;21.23;12.82;;;;;;;;;;4977699;28;20034;-87
2023/01/22 14:20:07;;;;;;;22.02;13.68;;;;;;;;;;4977657;28;20029;-89
2023/01/22 14:22:33;;;;;;;44.60;19.85;;;;;;;;;;4977520;28;20034;-87
2023/01/22 14:24:59;;;;;;;75.90;24.80;;;;;;;;;;4977688;28;20019;-88
2023/01/22 14:27:27;;;;;;;49.80;22.05;;;;;;;;;;4967253;28;20035;-87
2023/01/22 14:29:55;;;;;;;30.02;14.50;;;;;;;;;;4958218;28;20023;-89
2023/01/22 14:32:22;;;;;;;21.38;11.77;;;;;;;;;;4963914;28;20062;-88
2023/01/22 14:34:48;;;;;;;22.65;12.68;;;;;;;;;;4969236;28;20033;-89
2023/01/22 14:37:15;;;;;;;29.00;14.98;;;;;;;;;;4964249;28;20031;-88
2023/01/22 14:39:44;;;;;;;27.05;17.40;;;;;;;;;;4958213;28;20030;-89
2023/01/22 14:42:10;;;;;;;34.65;17.02;;;;;;;;;;4975463;28;20163;-89
2023/01/22 14:44:39;;;;;;;28.17;16.10;;;;;;;;;;4958056;28;20073;-90
2023/01/22 14:47:05;;;;;;;23.35;14.27;;;;;;;;;;4957714;28;20019;-89
2023/01/22 14:49:32;;;;;;;115.97;33.08;;;;;;;;;;4957975;28;20026;-88
2023/01/22 14:52:01;;;;;;;53.28;19.80;;;;;;;;;;4957921;28;20065;-91
2023/01/22 14:54:27;;;;;;;38.95;17.75;;;;;;;;;;4957832;28;20030;-89
2023/01/22 14:56:55;;;;;;;37.45;19.48;;;;;;;;;;4957597;28;20035;-89
2023/01/22 14:59:21;;;;;;;102.68;37.03;;;;;;;;;;4958012;28;20033;-89
2023/01/22 15:01:50;;;;;;;74.47;27.83;;;;;;;;;;4957568;28;20030;-91
2023/01/22 15:04:16;;;;;;;82.82;27.83;;;;;;;;;;4957781;28;20468;-90
2023/01/22 15:06:42;;;;;;;53.55;22.55;;;;;;;;;;4958017;28;20039;-91
2023/01/22 15:11:56;;;;;;;20.35;13.25;;;;;;;;;;4964219;28;20546;-89
2023/01/22 15:14:31;;;;;;;29.73;14.93;;;;;;;;;;4957466;28;20082;-92
2023/01/22 15:17:00;;;;;;;23.92;12.98;;;;;;;;;;4957511;28;20504;-92
2023/01/22 15:19:29;;;;;;;21.38;13.07;;;;;;;;;;4958076;28;20031;-89
2023/01/22 15:22:17;;;;;;;22.63;15.38;;;;;;;;;;4957828;28;20038;-91
2023/01/22 15:24:46;;;;;;;32.45;18.92;;;;;;;;;;4957715;28;20023;-91
2023/01/22 15:27:17;;;;;;;20.95;13.32;;;;;;;;;;4958078;28;20041;-91
2023/01/22 15:29:46;;;;;;;17.60;11.50;;;;;;;;;;4957767;28;20440;-92
2023/01/22 15:32:12;;;;;;;20.65;12.18;;;;;;;;;;4957880;28;20042;-89
2023/01/22 15:34:38;;;;;;;18.95;12.50;;;;;;;;;;4957941;28;20027;-89
2023/01/22 15:37:05;;;;;;;20.15;12.85;;;;;;;;;;4958138;28;20034;-92
2023/01/22 15:39:31;;;;;;;25.17;16.15;;;;;;;;;;4961544;28;20106;-93
2023/01/22 15:42:00;;;;;;;25.95;15.82;;;;;;;;;;4976024;28;20037;-92
2023/01/22 15:44:29;;;;;;;36.95;21.35;;;;;;;;;;4969171;28;20023;-92
2023/01/22 15:46:59;;;;;;;35.78;21.98;;;;;;;;;;4962143;28;20604;-92
2023/01/22 15:49:33;;;;;;;116.60;48.42;;;;;;;;;;4962210;28;20054;-94
2023/01/22 15:51:59;;;;;;;122.60;52.08;;;;;;;;;;4961924;28;20041;-94
2023/01/22 15:54:31;;;;;;;123.82;49.80;;;;;;;;;;4962116;28;20110;-91
2023/01/22 15:56:58;;;;;;;79.05;35.72;;;;;;;;;;4962907;28;20062;-95
2023/01/22 15:59:30;;;;;;;47.03;24.65;;;;;;;;;;4963761;28;20086;-94
2023/01/22 16:05:03;;;;;;;31.20;17.42;;;;;;;;;;5084441;23;20065;-92
2023/01/22 16:07:32;;;;;;;29.05;17.05;;;;;;;;;;4981065;28;20066;-93
2023/01/22 16:13:09;;;;;;;27.15;16.98;;;;;;;;;;5020404;23;20020;-93
2023/01/22 16:15:36;;;;;;;24.60;13.80;;;;;;;;;;4964010;28;20076;-90